Flight Track Log - Related Links

Times and Time Zones

All times are in EDT time to prevent confusion due to time zone crossing. See the N503LM flight status page for this flight to view local times or setup timezone preferences in your user account.

Time Position Orientation Groundspeed Altitude Reporting Facility
EDT Latitude Longitude Course Direction KTS MPH feet Rate Location/Type
Sat 04:28:11 PM 29.5492 -95.6572 183° South 188 216 2,600  Level Houston Center
Sat 04:29:02 PM 29.5125 -95.6803 209° Southwest 190 219 3,500 806 Climbing Houston Center
Sat 04:29:18 PM 29.4997 -95.6894 212° Southwest 195 224 3,500 194 Level Houston Center
Sat 04:30:04 PM 29.4908 -95.7303 256° West 198 228 3,700 327 Climbing Houston Center
Sat 04:30:13 PM 29.4894 -95.7411 262° West 196 226 3,800 1,377 Climbing Houston Center
Sat 04:31:05 PM 29.4625 -95.7756 228° Southwest 190 219 5,100 1,645 Climbing Houston Center
Sat 04:31:15 PM 29.4533 -95.7814 209° Southwest 178 205 5,500 2,129 Climbing Houston Center
Sat 04:32:07 PM 29.4225 -95.8069 216° Southwest 178 205 7,300 2,273 Climbing Houston Center
Sat 04:32:21 PM 29.4056 -95.8133 198° South 186 214 8,000 1,672 Climbing Houston Center
Sat 04:33:08 PM 29.3703 -95.8156 183° South 190 219 9,000 896 Climbing Houston Center
Sat 04:33:28 PM 29.3433 -95.8203 189° South 238 274 9,000  Level Houston Center
Sat 04:34:10 PM 29.3025 -95.8242 185° South 230 265 9,000 233 Level Houston Center
Sat 04:35:11 PM 29.2261 -95.8308 184° South 263 303 9,400 1,220 Climbing Houston Center
Sat 04:36:13 PM 29.1592 -95.8417 188° South 251 289 11,500 2,226 Climbing Houston Center
Sat 04:37:15 PM 29.1081 -95.8939 222° Southwest 208 239 14,000 2,146 Climbing Houston Center
Sat 04:38:16 PM 29.0686 -95.9433 228° Southwest 209 241 15,900 927 Climbing Houston Center
Sat 04:39:18 PM 29.0283 -95.9903 226° Southwest 218 251 15,900 49 Level Houston Center
Sat 04:40:19 PM 28.9742 -96.0564 227° Southwest 270 311 16,000 49 Climbing Houston Center
Sat 04:41:21 PM 28.9203 -96.1200 226° Southwest 278 320 16,000  Level Houston Center
Sat 04:42:22 PM 28.8536 -96.1989 226° Southwest 285 328 16,000  Level Houston Center
Sat 04:43:24 PM 28.7978 -96.2658 226° Southwest 288 331 16,000  Level Houston Center
Sat 04:44:26 PM 28.7422 -96.3322 226° Southwest 288 331 16,000  Level Houston Center
Sat 04:45:27 PM 28.6861 -96.3961 225° Southwest 287 330 16,000  Level Houston Center
Sat 04:46:29 PM 28.6306 -96.4619 226° Southwest 289 333 16,000  Level Houston Center
Sat 04:47:31 PM 28.5747 -96.5289 226° Southwest 290 334 16,000  Level Houston Center
Sat 04:48:32 PM 28.5172 -96.5944 225° Southwest 292 336 16,000 -195 Level Houston Center
Sat 04:49:34 PM 28.4617 -96.6614 227° Southwest 291 335 15,600 -1,049 Descending Houston Center
Sat 04:50:15 PM 28.4114 -96.7217 227° Southwest 301 346 14,200 -1,839 Descending Houston Center
Sat 04:50:36 PM 28.3906 -96.7436 223° Southwest 299 344 13,700 -1,545 Descending Houston Center
Sat 04:51:21 PM 28.3497 -96.7925 227° Southwest 303 349 12,500 -1,452 Descending Houston Center
Sat 04:51:38 PM 28.3350 -96.8136 232° Southwest 299 344 12,200 -984 Descending Houston Center
Sat 04:52:22 PM 28.3017 -96.8708 237° Southwest 288 331 11,500 -885 Descending Houston Center
Sat 04:52:39 PM 28.2892 -96.8878 230° Southwest 289 333 11,300 -984 Descending Houston Center
Sat 04:53:23 PM 28.2514 -96.9469 234° Southwest 287 330 10,500 -968 Descending Houston Center
Sat 04:53:41 PM 28.2417 -96.9606 231° Southwest 287 330 10,300 -900 Descending Houston Center
Sat 04:54:23 PM 28.2044 -97.0178 234° Southwest 291 335 9,600 -871 Descending Houston Center
Sat 04:54:43 PM 28.1925 -97.0347 231° Southwest 292 336 9,400 -885 Descending Houston Center
Sat 04:55:24 PM 28.1542 -97.0939 234° Southwest 291 335 8,700 -885 Descending Houston Center
Sat 04:55:44 PM 28.1458 -97.1081 236° Southwest 288 331 8,500 -904 Descending Houston Center
Sat 04:56:37 PM 28.0967 -97.1828 233° Southwest 285 328 7,600 -871 Descending Houston Center
Sat 04:56:46 PM 28.0983 -97.1806 50° Northeast 287 330 7,600 -761 Level Houston Center
Sat 04:57:48 PM 28.0514 -97.2517 233° Southwest 284 327 6,700 -1,019 Descending Houston Center
Sat 04:58:32 PM 28.0083 -97.3186 234° Southwest 273 314 5,800 -1,065 Descending Houston Center
Sat 04:58:50 PM 27.9978 -97.3347 233° Southwest 276 318 5,600 -800 Descending Houston Center
Sat 04:59:32 PM 27.9650 -97.3839 233° Southwest 270 311 5,000 -885 Descending Houston Center
Sat 04:59:51 PM 27.9522 -97.4033 233° Southwest 274 315 4,700 -1,185 Descending Houston Center
Sat 05:00:53 PM 27.8986 -97.4706 228° Southwest 271 312 3,400 -1,515 Descending Houston Center
Sat 05:01:34 PM 27.8611 -97.4928 208° Southwest 245 282 2,100 -1,188 Descending Houston Center
Sat 05:02:34 PM 27.8225 -97.5267 218° Southwest 135 155 1,400 -678 Descending Houston Center
Sat 05:03:29 PM 27.7958 -97.5325 191° South 92 106 800 -655 Descending Houston Center
Sat 05:05:00 PM 27.7667 -97.5000 204° Southwest  Level FlightAware Approximate
Sat 05:12:00 PM 27.7704 -97.5012 204° Southwest  Level Estimated
Sat 05:13:00 PM 27.7667 -97.5000 204° Southwest  Level FlightAware Approximate
Sat 05:14:00 PM 27.7704 -97.5012 204° Southwest  Level Estimated
Sat 05:15:00 PM 27.7667 -97.5000 204° Southwest  Level FlightAware Approximate
Sat 05:16:00 PM 27.7704 -97.5012 204° Southwest  Level Estimated
Sat 05:17:00 PM 27.7667 -97.5000 204° Southwest  Level FlightAware Approximate
Sat 05:18:00 PM 27.7704 -97.5012 204° Southwest  Level Estimated
Sat 05:19:00 PM 27.7667 -97.5000 204° Southwest  Level FlightAware Approximate
Sat 05:20:00 PM 27.7704 -97.5012 204° Southwest  Level Estimated
Sat 05:21:00 PM 27.7667 -97.5000 204° Southwest  Level FlightAware Approximate
Sat 05:22:00 PM 27.7704 -97.5012 204° Southwest  Level Estimated

Login

Don't have an account? Register now (free) for customized features, flight alerts, and more!